createdAt,value
2023-02-04T00:00:15.399Z,0.61
2023-02-04T00:02:42.385Z,0.67
2023-02-04T00:05:10.399Z,0.57
2023-02-04T00:07:37.235Z,0.52
2023-02-04T00:10:06.699Z,0.50
2023-02-04T00:12:34.610Z,0.38
2023-02-04T00:15:01.956Z,0.41
2023-02-04T00:17:28.856Z,0.32
2023-02-04T00:19:55.738Z,0.31
2023-02-04T00:22:22.681Z,0.18
2023-02-04T00:24:50.716Z,0.19
2023-02-04T00:27:17.934Z,0.17
2023-02-04T00:29:44.845Z,0.20
2023-02-04T00:32:13.005Z,0.23
2023-02-04T00:34:39.983Z,0.26
2023-02-04T00:37:07.343Z,0.32
2023-02-04T00:39:34.175Z,0.32
2023-02-04T00:42:01.058Z,0.38
2023-02-04T00:44:27.947Z,0.39
2023-02-04T00:46:55.782Z,0.30
2023-02-04T00:49:22.617Z,0.31
2023-02-04T00:51:51.449Z,0.43
2023-02-04T00:54:18.374Z,0.51
2023-02-04T00:56:46.472Z,0.65
2023-02-04T00:59:13.336Z,0.70
2023-02-04T01:01:41.243Z,0.82
2023-02-04T01:04:08.197Z,1.04
2023-02-04T01:06:35.359Z,1.10
2023-02-04T01:09:02.796Z,1.16
2023-02-04T01:11:30.879Z,1.29
2023-02-04T01:13:58.092Z,1.37
2023-02-04T01:16:25.046Z,1.55
2023-02-04T01:18:51.993Z,1.54
2023-02-04T01:21:18.913Z,1.66
2023-02-04T01:23:45.735Z,1.71
2023-02-04T01:26:12.540Z,1.78
2023-02-04T01:28:39.415Z,1.94
2023-02-04T01:31:06.415Z,1.99
2023-02-04T01:33:33.246Z,2.10
2023-02-04T01:36:00.159Z,2.19
2023-02-04T01:38:27.188Z,2.26
2023-02-04T01:40:54.148Z,2.30
2023-02-04T01:43:23.318Z,2.36
2023-02-04T01:45:50.895Z,2.22
2023-02-04T01:48:20.712Z,2.26
2023-02-04T01:50:52.816Z,2.38
2023-02-04T01:53:24.080Z,2.39
2023-02-04T01:55:51.537Z,2.32
2023-02-04T01:58:19.202Z,2.33
2023-02-04T02:00:47.236Z,2.31
2023-02-04T02:03:14.144Z,2.31
2023-02-04T02:05:53.953Z,2.40
2023-02-04T02:08:21.154Z,2.41
2023-02-04T02:10:49.468Z,2.49
2023-02-04T02:13:19.378Z,2.27
2023-02-04T02:15:47.607Z,2.27
2023-02-04T02:18:15.921Z,2.40
2023-02-04T02:20:44.870Z,2.29
2023-02-04T02:23:11.725Z,2.31
2023-02-04T02:25:38.926Z,2.40
2023-02-04T02:28:11.414Z,2.27
2023-02-04T02:30:40.599Z,2.35
2023-02-04T02:33:08.336Z,2.45
2023-02-04T02:35:35.362Z,2.26
2023-02-04T02:38:02.335Z,2.37
2023-02-04T02:40:29.643Z,2.15
2023-02-04T02:42:56.701Z,2.14
2023-02-04T02:45:26.373Z,2.11
2023-02-04T02:47:54.226Z,2.18
2023-02-04T02:50:24.963Z,2.12
2023-02-04T02:52:53.382Z,2.14
2023-02-04T02:55:24.121Z,2.36
2023-02-04T02:57:53.012Z,2.42
2023-02-04T03:00:28.681Z,2.54
2023-02-04T03:03:11.470Z,2.49
2023-02-04T03:05:44.823Z,2.50
2023-02-04T03:08:14.471Z,2.59
2023-02-04T03:10:42.546Z,2.72
2023-02-04T03:27:41.668Z,1.73
2023-02-04T03:30:09.396Z,1.74
2023-02-04T03:32:36.323Z,1.74
2023-02-04T03:35:03.173Z,1.79
2023-02-04T03:37:30.030Z,1.93
2023-02-04T03:39:56.899Z,1.92
2023-02-04T03:42:24.912Z,2.07
2023-02-04T03:44:51.766Z,2.02
2023-02-04T03:47:18.607Z,1.89
2023-02-04T03:49:45.404Z,2.03
2023-02-04T03:52:12.251Z,1.95
2023-02-04T03:54:39.169Z,1.90
2023-02-04T03:57:06.091Z,1.91
2023-02-04T03:59:33.007Z,2.02
2023-02-04T04:01:59.889Z,2.01
2023-02-04T04:04:26.762Z,1.87
2023-02-04T04:06:53.624Z,1.83
2023-02-04T04:09:20.529Z,1.92
2023-02-04T04:11:47.421Z,1.77
2023-02-04T04:14:14.260Z,1.76
2023-02-04T04:16:41.170Z,1.68
2023-02-04T04:19:08.082Z,1.81
2023-02-04T04:21:34.975Z,1.67
2023-02-04T04:24:01.878Z,1.73
2023-02-04T04:26:28.757Z,1.85
2023-02-04T04:28:55.613Z,1.74
2023-02-04T04:31:22.693Z,1.92
2023-02-04T04:33:49.591Z,1.94
2023-02-04T04:36:16.549Z,1.77
2023-02-04T04:38:43.398Z,1.85
2023-02-04T04:41:10.302Z,1.89
2023-02-04T04:43:37.152Z,1.83
2023-02-04T04:46:04.085Z,1.75
2023-02-04T04:48:30.947Z,1.83
2023-02-04T04:50:58.425Z,1.92
2023-02-04T04:53:25.345Z,1.88
2023-02-04T04:55:52.212Z,1.81
2023-02-04T04:58:19.252Z,1.94
2023-02-04T05:00:46.244Z,1.95
2023-02-04T05:03:13.107Z,2.00
2023-02-04T05:05:41.451Z,2.00
2023-02-04T05:08:13.151Z,1.97
2023-02-04T05:10:40.640Z,1.98
2023-02-04T05:13:08.159Z,2.02
2023-02-04T05:15:35.232Z,1.99
2023-02-04T05:18:02.218Z,2.03
2023-02-04T05:20:29.205Z,2.02
2023-02-04T05:22:56.388Z,2.02
2023-02-04T05:25:23.782Z,1.99
2023-02-04T05:27:50.659Z,1.90
2023-02-04T05:30:17.697Z,2.00
2023-02-04T05:32:44.525Z,2.00
2023-02-04T05:35:12.131Z,1.91
2023-02-04T05:37:39.048Z,1.95
2023-02-04T05:40:06.457Z,1.91
2023-02-04T05:42:33.617Z,1.96
2023-02-04T05:45:00.571Z,1.97
2023-02-04T05:47:27.524Z,1.86
2023-02-04T05:49:54.383Z,1.84
2023-02-04T05:52:21.287Z,1.98
2023-02-04T05:54:48.169Z,1.78
2023-02-04T05:57:14.964Z,1.64
2023-02-04T05:59:41.738Z,1.47
2023-02-04T06:02:08.588Z,1.55
2023-02-04T06:04:35.442Z,1.77
2023-02-04T06:07:03.432Z,1.83
2023-02-04T06:09:30.275Z,1.86
2023-02-04T06:11:57.720Z,1.76
2023-02-04T06:14:24.642Z,1.63
2023-02-04T06:16:51.555Z,1.68
2023-02-04T06:19:18.529Z,1.68
2023-02-04T06:21:45.342Z,1.54
2023-02-04T06:24:12.206Z,1.64
2023-02-04T06:26:39.048Z,1.73
2023-02-04T06:29:05.927Z,1.74
2023-02-04T06:31:32.974Z,1.73
2023-02-04T06:34:00.289Z,1.62
2023-02-04T06:36:27.202Z,1.68
2023-02-04T06:38:54.315Z,1.60
2023-02-04T06:41:21.201Z,1.54
2023-02-04T06:43:48.153Z,1.69
2023-02-04T06:46:16.167Z,1.70
2023-02-04T06:48:43.092Z,1.68
2023-02-04T06:51:10.001Z,1.75
2023-02-04T06:53:36.854Z,1.78
2023-02-04T06:56:03.678Z,1.76
2023-02-04T06:58:30.501Z,1.78
2023-02-04T07:00:57.372Z,1.67
2023-02-04T07:03:24.215Z,1.61
2023-02-04T07:05:53.050Z,1.64
2023-02-04T07:08:21.940Z,1.69
2023-02-04T07:10:48.840Z,1.74
2023-02-04T07:13:15.660Z,1.91
2023-02-04T07:15:42.611Z,1.78
2023-02-04T07:18:09.443Z,1.88
2023-02-04T07:20:36.311Z,1.93
2023-02-04T07:23:03.236Z,2.09
2023-02-04T07:25:30.054Z,2.22
2023-02-04T07:27:57.866Z,2.24
2023-02-04T07:30:24.642Z,2.35
2023-02-04T07:32:51.512Z,2.42
2023-02-04T07:35:18.345Z,2.33
2023-02-04T07:37:45.357Z,2.21
2023-02-04T07:40:12.993Z,2.35
2023-02-04T07:42:39.834Z,2.39
2023-02-04T07:45:11.861Z,2.62
2023-02-04T07:47:38.702Z,2.54
2023-02-04T07:50:06.032Z,2.66
2023-02-04T07:52:32.898Z,2.73
2023-02-04T07:54:59.693Z,2.64
2023-02-04T07:57:26.649Z,2.62
2023-02-04T07:59:53.480Z,3.05
2023-02-04T08:02:20.389Z,2.73
2023-02-04T08:04:47.298Z,2.70
2023-02-04T08:07:14.368Z,2.45
2023-02-04T08:09:41.349Z,2.44
2023-02-04T08:12:08.309Z,2.48
2023-02-04T08:14:35.400Z,2.61
2023-02-04T08:17:02.260Z,2.70
2023-02-04T08:19:29.146Z,2.81
2023-02-04T08:21:56.053Z,2.55
2023-02-04T08:24:22.955Z,2.69
2023-02-04T08:26:51.089Z,2.46
2023-02-04T08:29:18.659Z,2.72
2023-02-04T08:31:46.894Z,2.84
2023-02-04T08:34:13.970Z,3.12
2023-02-04T08:36:40.878Z,3.24
2023-02-04T08:39:07.721Z,3.07
2023-02-04T08:41:34.658Z,3.44
2023-02-04T08:44:01.809Z,3.25
2023-02-04T08:46:28.691Z,3.17
2023-02-04T08:48:56.195Z,3.13
2023-02-04T08:51:23.092Z,3.22
2023-02-04T08:53:49.988Z,3.24
2023-02-04T08:56:19.245Z,3.21
2023-02-04T08:58:46.685Z,3.25
2023-02-04T09:01:14.202Z,3.16
2023-02-04T09:03:41.225Z,3.11
2023-02-04T09:06:08.925Z,3.15
2023-02-04T09:08:35.904Z,3.27
2023-02-04T09:11:03.170Z,3.38
2023-02-04T09:13:30.793Z,3.27
2023-02-04T09:15:57.619Z,3.25
2023-02-04T09:18:25.974Z,3.28
2023-02-04T09:20:53.224Z,3.32
2023-02-04T09:23:20.547Z,3.31
2023-02-04T09:25:47.565Z,3.41
2023-02-04T09:28:17.142Z,3.29
2023-02-04T09:30:46.626Z,3.36
2023-02-04T09:33:15.529Z,3.61
2023-02-04T09:35:42.400Z,3.70
2023-02-04T09:38:09.296Z,4.10
2023-02-04T09:40:42.023Z,4.92
2023-02-04T09:43:15.284Z,5.90
2023-02-04T09:45:42.331Z,6.44
2023-02-04T09:48:13.782Z,6.51
2023-02-04T09:50:40.819Z,6.44
2023-02-04T09:53:13.365Z,5.91
2023-02-04T09:55:43.250Z,5.40
2023-02-04T09:58:20.235Z,5.44
2023-02-04T10:00:52.764Z,5.81
2023-02-04T10:03:23.509Z,6.25
2023-02-04T10:05:51.628Z,8.79
2023-02-04T10:08:28.772Z,8.71
2023-02-04T10:10:58.007Z,8.40
2023-02-04T10:13:33.080Z,11.21
2023-02-04T10:16:01.347Z,11.50
2023-02-04T10:18:34.133Z,10.86
2023-02-04T10:21:17.022Z,9.64
2023-02-04T10:23:47.198Z,8.79
2023-02-04T10:26:15.900Z,8.20
2023-02-04T10:28:43.361Z,7.05
2023-02-04T10:31:39.471Z,7.69
2023-02-04T10:34:10.340Z,7.48
2023-02-04T10:36:37.318Z,7.60
2023-02-04T10:39:11.535Z,7.27
2023-02-04T10:41:44.296Z,7.01
2023-02-04T10:44:13.601Z,6.25
2023-02-04T10:46:40.538Z,6.38
2023-02-04T10:49:22.490Z,6.98
2023-02-04T10:51:51.569Z,6.72
2023-02-04T10:54:30.257Z,7.00
2023-02-04T10:57:04.976Z,6.58
2023-02-04T10:59:32.164Z,6.67
2023-02-04T11:02:01.777Z,7.22
2023-02-04T11:04:28.982Z,7.06
2023-02-04T11:06:55.866Z,6.60
2023-02-04T11:09:22.895Z,6.45
2023-02-04T11:11:51.557Z,6.11
2023-02-04T11:14:24.363Z,5.89
2023-02-04T11:16:51.532Z,5.73
2023-02-04T11:19:40.113Z,5.67
2023-02-04T11:22:25.665Z,5.55
2023-02-04T11:24:52.636Z,5.62
2023-02-04T11:27:24.139Z,5.88
2023-02-04T11:29:51.198Z,5.86
2023-02-04T11:32:33.530Z,6.01
2023-02-04T11:35:28.874Z,6.16
2023-02-04T11:37:56.094Z,6.13
2023-02-04T11:40:33.256Z,6.37
2023-02-04T11:43:16.428Z,5.74
2023-02-04T11:45:43.530Z,5.73
2023-02-04T11:48:19.359Z,5.40
2023-02-04T11:51:00.289Z,5.38
2023-02-04T11:53:33.021Z,5.30
2023-02-04T11:56:00.594Z,5.53
2023-02-04T11:58:31.111Z,5.82
2023-02-04T12:00:58.627Z,5.68
2023-02-04T12:03:31.701Z,5.54
2023-02-04T12:05:59.757Z,5.27
2023-02-04T12:08:32.392Z,5.51
2023-02-04T12:11:01.915Z,5.17
2023-02-04T12:13:30.929Z,5.02
2023-02-04T12:16:01.084Z,4.95
2023-02-04T12:18:29.309Z,5.25
2023-02-04T12:20:57.495Z,5.10
2023-02-04T12:23:25.453Z,5.32
2023-02-04T12:25:52.901Z,5.48
2023-02-04T12:28:20.166Z,5.66
2023-02-04T12:30:47.146Z,5.56
2023-02-04T12:33:15.113Z,5.58
2023-02-04T12:35:42.610Z,5.45
2023-02-04T12:38:10.434Z,5.47
2023-02-04T12:40:37.997Z,5.37
2023-02-04T12:43:05.029Z,5.28
2023-02-04T12:45:32.698Z,5.28
2023-02-04T12:48:00.205Z,5.01
2023-02-04T12:50:27.223Z,5.08
2023-02-04T12:52:56.143Z,5.18
2023-02-04T12:55:24.816Z,5.32
2023-02-04T12:57:52.421Z,5.24
2023-02-04T13:00:21.030Z,5.22
2023-02-04T13:02:48.498Z,5.54
2023-02-04T13:05:16.855Z,5.45
2023-02-04T13:07:43.678Z,5.30
2023-02-04T13:10:11.379Z,5.37
2023-02-04T13:12:38.254Z,5.43
2023-02-04T13:15:06.020Z,5.27
2023-02-04T13:17:32.996Z,5.31
2023-02-04T13:20:00.804Z,5.27
2023-02-04T13:22:27.989Z,5.19
2023-02-04T13:24:54.946Z,5.10
2023-02-04T13:27:21.924Z,4.88
2023-02-04T13:29:48.794Z,4.71
2023-02-04T13:32:16.194Z,4.54
2023-02-04T13:34:43.070Z,4.54
2023-02-04T13:37:09.983Z,4.38
2023-02-04T13:39:36.940Z,4.36
2023-02-04T13:42:04.622Z,4.25
2023-02-04T13:44:32.814Z,4.26
2023-02-04T13:47:00.263Z,4.32
2023-02-04T13:49:27.158Z,4.32
2023-02-04T13:51:54.032Z,4.43
2023-02-04T13:54:20.897Z,4.39
2023-02-04T13:56:47.842Z,4.43
2023-02-04T13:59:14.735Z,4.45
2023-02-04T14:01:41.671Z,4.46
2023-02-04T14:04:08.600Z,4.52
2023-02-04T14:06:38.311Z,4.44
2023-02-04T14:09:05.521Z,4.34
2023-02-04T14:11:32.328Z,4.42
2023-02-04T14:13:59.175Z,4.41
2023-02-04T14:16:26.092Z,4.47
2023-02-04T14:18:53.099Z,4.41
2023-02-04T14:21:20.000Z,4.33
2023-02-04T14:23:46.788Z,4.52
2023-02-04T14:26:13.692Z,4.47
2023-02-04T14:28:40.523Z,4.47
2023-02-04T14:31:07.486Z,4.32
2023-02-04T14:33:34.378Z,4.50
2023-02-04T14:36:01.314Z,4.37
2023-02-04T14:38:31.239Z,4.31
2023-02-04T14:40:58.853Z,4.38
2023-02-04T14:43:26.251Z,4.24
2023-02-04T14:45:53.438Z,4.11
2023-02-04T14:48:20.452Z,4.17
2023-02-04T14:50:47.370Z,4.19
2023-02-04T14:53:14.345Z,4.25
2023-02-04T14:55:41.305Z,4.13
2023-02-04T14:58:08.210Z,4.31
2023-02-04T15:00:35.272Z,4.29
2023-02-04T15:03:02.271Z,4.21
2023-02-04T15:05:29.206Z,4.21
2023-02-04T15:07:56.101Z,4.25
2023-02-04T15:10:24.752Z,4.27
2023-02-04T15:12:52.089Z,4.12
2023-02-04T15:29:53.079Z,3.32
2023-02-04T15:32:38.529Z,3.38
2023-02-04T15:35:05.845Z,3.46
2023-02-04T15:40:35.821Z,3.62
2023-02-04T15:43:21.497Z,3.80
2023-02-04T15:45:48.360Z,3.69
2023-02-04T15:48:16.725Z,3.74
2023-02-04T15:50:44.092Z,3.71
2023-02-04T15:53:11.085Z,3.82
2023-02-04T15:55:37.899Z,3.73
2023-02-04T15:58:04.778Z,3.63
2023-02-04T16:00:31.828Z,3.56
2023-02-04T16:02:58.941Z,3.60
2023-02-04T16:05:25.817Z,3.44
2023-02-04T16:07:52.627Z,3.37
2023-02-04T16:10:19.913Z,3.23
2023-02-04T16:12:47.612Z,3.13
2023-02-04T16:15:15.253Z,3.02
2023-02-04T16:17:42.134Z,3.11
2023-02-04T16:20:10.067Z,3.05
2023-02-04T16:22:37.197Z,2.93
2023-02-04T16:25:04.964Z,2.89
2023-02-04T16:27:31.984Z,2.96
2023-02-04T16:29:58.873Z,2.93
2023-02-04T16:32:26.134Z,2.86
2023-02-04T16:34:53.862Z,2.81
2023-02-04T16:37:20.744Z,2.83
2023-02-04T16:39:48.298Z,2.73
2023-02-04T16:42:15.452Z,2.58
2023-02-04T16:44:42.289Z,2.56
2023-02-04T16:47:09.386Z,2.52
2023-02-04T16:49:36.949Z,2.54
2023-02-04T16:52:05.258Z,2.46
2023-02-04T16:54:33.036Z,2.48
2023-02-04T16:57:00.800Z,2.43
2023-02-04T16:59:28.789Z,2.50
2023-02-04T17:01:57.774Z,2.46
2023-02-04T17:04:25.415Z,2.33
2023-02-04T17:06:52.695Z,2.39
2023-02-04T17:09:20.154Z,2.34
2023-02-04T17:11:47.256Z,2.30
2023-02-04T17:14:17.554Z,2.39
2023-02-04T17:16:45.649Z,2.45
2023-02-04T17:19:14.197Z,2.35
2023-02-04T17:21:41.165Z,2.38
2023-02-04T17:24:09.014Z,2.32
2023-02-04T17:26:38.157Z,2.33
2023-02-04T17:29:10.694Z,2.23
2023-02-04T17:31:38.503Z,2.27
2023-02-04T17:34:06.386Z,2.17
2023-02-04T17:36:33.445Z,2.10
2023-02-04T17:39:00.555Z,2.03
2023-02-04T17:41:28.027Z,2.03
2023-02-04T17:43:55.168Z,2.00
2023-02-04T17:46:22.320Z,1.94
2023-02-04T17:48:49.246Z,1.99
2023-02-04T17:51:16.198Z,2.03
2023-02-04T17:53:43.223Z,1.93
2023-02-04T17:56:12.386Z,1.93
2023-02-04T17:58:39.873Z,1.97
2023-02-04T18:01:15.618Z,1.91
2023-02-04T18:03:46.086Z,1.93
2023-02-04T18:06:22.407Z,1.83
2023-02-04T18:08:50.604Z,1.81
2023-02-04T18:11:20.394Z,1.80
2023-02-04T18:13:48.672Z,1.84
2023-02-04T18:16:34.720Z,1.80
2023-02-04T18:19:20.152Z,1.76
2023-02-04T18:21:48.174Z,1.71
2023-02-04T18:24:22.924Z,1.71
2023-02-04T18:27:01.284Z,1.70
2023-02-04T18:29:35.224Z,1.61
2023-02-04T18:32:19.237Z,1.68
2023-02-04T18:34:51.707Z,1.65
2023-02-04T18:37:29.555Z,1.58
2023-02-04T18:40:20.134Z,1.59
2023-02-04T18:42:47.669Z,1.69
2023-02-04T18:45:24.348Z,1.65
2023-02-04T18:47:56.644Z,1.66
2023-02-04T18:50:32.620Z,1.60
2023-02-04T18:53:15.138Z,1.58
2023-02-04T18:55:50.359Z,1.48
2023-02-04T18:58:17.304Z,1.44
2023-02-04T19:00:49.827Z,1.35
2023-02-04T19:03:25.439Z,1.41
2023-02-04T19:05:54.005Z,1.45
2023-02-04T19:08:51.716Z,1.26
2023-02-04T19:11:34.673Z,1.25
2023-02-04T19:14:02.783Z,1.15
2023-02-04T19:16:38.815Z,1.11
2023-02-04T19:19:26.750Z,1.11
2023-02-04T19:21:53.722Z,1.04
2023-02-04T19:24:29.841Z,0.92
2023-02-04T19:27:01.743Z,0.89
2023-02-04T19:29:42.804Z,0.90
2023-02-04T19:32:13.044Z,0.90
2023-02-04T19:34:40.030Z,0.85
2023-02-04T19:37:22.970Z,0.81
2023-02-04T19:39:54.527Z,0.84
2023-02-04T19:42:29.161Z,0.78
2023-02-04T19:44:59.401Z,0.83
2023-02-04T19:47:37.488Z,0.81
2023-02-04T19:50:13.545Z,0.83
2023-02-04T19:52:54.813Z,0.82
2023-02-04T19:55:37.315Z,0.78
2023-02-04T19:58:19.463Z,0.83
2023-02-04T20:00:56.383Z,0.79
2023-02-04T20:03:34.905Z,0.79
2023-02-04T20:06:30.125Z,0.71
2023-02-04T20:09:16.916Z,0.77
2023-02-04T20:11:50.756Z,0.71
2023-02-04T20:14:37.428Z,0.75
2023-02-04T20:17:15.111Z,0.77
2023-02-04T20:19:42.672Z,0.77
2023-02-04T20:22:22.159Z,0.75
2023-02-04T20:24:55.036Z,0.78
2023-02-04T20:27:28.751Z,0.76
2023-02-04T20:30:23.586Z,0.74
2023-02-04T20:32:55.157Z,0.71
2023-02-04T20:35:22.418Z,0.70
2023-02-04T20:37:58.824Z,0.76
2023-02-04T20:40:33.453Z,0.81
2023-02-04T20:43:02.138Z,0.80
2023-02-04T20:45:32.965Z,0.75
2023-02-04T20:48:13.325Z,0.73
2023-02-04T20:50:43.903Z,0.77
2023-02-04T20:53:42.713Z,0.80
2023-02-04T20:56:24.385Z,0.82
2023-02-04T20:58:57.731Z,0.80
2023-02-04T21:01:36.078Z,0.79
2023-02-04T21:04:27.016Z,0.80
2023-02-04T21:06:57.548Z,0.80
2023-02-04T21:09:27.389Z,0.78
2023-02-04T21:11:55.533Z,0.79
2023-02-04T21:14:23.390Z,0.79
2023-02-04T21:16:50.381Z,0.77
2023-02-04T21:19:17.469Z,0.81
2023-02-04T21:21:44.635Z,0.79
2023-02-04T21:24:11.813Z,0.81
2023-02-04T21:26:38.807Z,0.79
2023-02-04T21:29:06.309Z,0.79
2023-02-04T21:31:33.749Z,0.80
2023-02-04T21:34:00.683Z,0.79
2023-02-04T21:36:27.981Z,0.74
2023-02-04T21:38:56.124Z,0.65
2023-02-04T21:41:24.015Z,0.68
2023-02-04T21:43:51.705Z,0.57
2023-02-04T21:46:19.161Z,0.53
2023-02-04T21:48:46.582Z,0.49
2023-02-04T21:51:14.757Z,0.46
2023-02-04T21:53:42.289Z,0.43
2023-02-04T21:56:09.558Z,0.40
2023-02-04T21:58:36.923Z,0.37
2023-02-04T22:01:03.949Z,0.35
2023-02-04T22:03:30.877Z,0.35
2023-02-04T22:05:57.768Z,0.37
2023-02-04T22:08:24.677Z,0.36
2023-02-04T22:10:51.639Z,0.36
2023-02-04T22:13:37.245Z,0.36
2023-02-04T22:16:04.303Z,0.32
2023-02-04T22:18:31.338Z,0.31
2023-02-04T22:20:59.608Z,0.32
2023-02-04T22:23:26.453Z,0.29
2023-02-04T22:25:53.333Z,0.26
2023-02-04T22:28:20.269Z,0.29
2023-02-04T22:30:47.255Z,0.31
2023-02-04T22:33:14.247Z,0.27
2023-02-04T22:35:41.164Z,0.28
2023-02-04T22:38:08.130Z,0.26
2023-02-04T22:40:35.047Z,0.25
2023-02-04T22:43:02.416Z,0.21
2023-02-04T22:45:29.261Z,0.19
2023-02-04T22:47:56.130Z,0.15
2023-02-04T22:50:23.024Z,0.12
2023-02-04T22:52:49.861Z,0.06
2023-02-04T22:55:16.745Z,0.04
2023-02-04T22:57:43.519Z,-0.01
2023-02-04T23:00:11.202Z,0.00
2023-02-04T23:02:38.000Z,-0.06
2023-02-04T23:05:05.430Z,-0.01
2023-02-04T23:07:32.358Z,0.02
2023-02-04T23:09:59.609Z,-0.01
2023-02-04T23:12:26.439Z,-0.01
2023-02-04T23:14:53.360Z,-0.03
2023-02-04T23:17:20.118Z,-0.08
2023-02-04T23:19:46.951Z,-0.07
2023-02-04T23:22:14.142Z,-0.11
2023-02-04T23:24:41.816Z,-0.16
2023-02-04T23:27:11.416Z,-0.18
2023-02-04T23:29:39.728Z,-0.20
2023-02-04T23:32:07.490Z,-0.22
2023-02-04T23:34:34.988Z,-0.23
2023-02-04T23:37:01.977Z,-0.27
2023-02-04T23:39:29.070Z,-0.26
2023-02-04T23:41:56.042Z,-0.26
2023-02-04T23:44:23.040Z,-0.27
2023-02-04T23:46:50.225Z,-0.30
2023-02-04T23:49:17.173Z,-0.30
2023-02-04T23:51:44.280Z,-0.32
2023-02-04T23:54:11.196Z,-0.42
2023-02-04T23:56:38.366Z,-0.45
2023-02-04T23:59:06.008Z,-0.55
